Time;durP1;ratioP1;P1;durP2;ratioP2;P2;SDS_P1;SDS_P2;PMS_P1;PMS_P2;Temp;Humidity;BMP_temperature;BMP_pressure;BME280_temperature;BME280_humidity;BME280_pressure;Samples;Min_cycle;Max_cycle;Signal;HPM_P1;HPM_P2
2022/03/11 00:11:41;;;;;;;12.10;8.60;;;1.00;1.00;;;;;;6133723;23;20203;-83
2022/03/11 00:14:37;;;;;;;12.27;9.27;;;1.00;1.00;;;;;;6106503;23;20200;-81
2022/03/11 00:48:15;;;;;;;10.57;8.18;;;0.70;1.00;;;;;;6052081;23;20220;-84
2022/03/11 00:51:09;;;;;;;17.45;8.95;;;0.70;1.00;;;;;;6103241;23;20280;-82
2022/03/11 00:54:00;;;;;;;16.60;10.43;;;0.60;1.00;;;;;;6235843;22;20189;-82
2022/03/11 00:58:08;;;;;;;12.98;8.98;;;0.60;1.00;;;;;;6225523;22;20286;-84
2022/03/11 01:01:35;;;;;;;14.45;11.20;;;0.60;1.00;;;;;;6242340;22;20220;-81
2022/03/11 01:11:47;;;;;;;13.45;8.77;;;0.50;1.00;;;;;;6273632;22;20196;-85
2022/03/11 01:15:25;;;;;;;13.85;8.82;;;0.50;1.00;;;;;;6118158;23;20269;-83
2022/03/11 01:25:37;;;;;;;13.57;9.52;;;0.40;1.00;;;;;;6198810;22;20197;-83
2022/03/11 01:28:10;;;;;;;18.90;10.48;;;0.40;1.00;;;;;;6256709;22;20181;-83
2022/03/11 01:31:35;;;;;;;11.50;9.60;;;0.40;1.00;;;;;;6265077;22;20421;-82
2022/03/11 01:38:39;;;;;;;14.65;9.20;;;0.40;1.00;;;;;;6191249;22;20357;-83
2022/03/11 01:42:16;;;;;;;16.95;10.07;;;0.40;1.00;;;;;;6189524;22;20205;-83
2022/03/11 01:45:08;;;;;;;13.50;10.20;;;0.30;1.00;;;;;;6244096;22;20967;-84
2022/03/11 01:48:06;;;;;;;13.23;8.80;;;0.30;1.00;;;;;;6227095;22;20272;-83
2022/03/11 01:50:50;;;;;;;18.52;9.43;;;0.30;1.00;;;;;;6257870;22;20309;-81
2022/03/11 01:53:40;;;;;;;13.40;9.98;;;0.20;1.00;;;;;;6228214;22;20189;-84
2022/03/11 01:56:16;;;;;;;13.23;9.85;;;0.20;1.00;;;;;;6260246;22;20203;-83
2022/03/11 01:58:57;;;;;;;14.05;10.23;;;0.20;1.00;;;;;;6246322;22;20208;-84
2022/03/11 02:18:39;;;;;;;16.55;10.38;;;0.10;1.00;;;;;;6256905;22;20197;-84
2022/03/11 02:21:49;;;;;;;14.80;9.98;;;0.00;1.00;;;;;;6233431;22;20220;-83
2022/03/11 02:24:57;;;;;;;;;;;;;;;;;;;;;
2022/03/11 02:27:42;;;;;;;12.48;9.60;;;0.00;1.00;;;;;;6255009;22;20255;-81
2022/03/11 02:30:22;;;;;;;13.20;10.05;;;-0.10;1.00;;;;;;6225732;22;20219;-81
2022/03/11 02:32:54;;;;;;;13.75;10.20;;;-0.10;1.00;;;;;;6263942;22;20190;-81
2022/03/11 02:36:19;;;;;;;14.02;10.07;;;-0.10;1.00;;;;;;6251608;22;21091;-81
2022/03/11 02:39:23;;;;;;;15.10;10.00;;;-0.10;1.00;;;;;;6222854;22;20193;-82
2022/03/11 02:42:29;;;;;;;11.80;9.05;;;-0.10;1.00;;;;;;6223366;22;20193;-82
2022/03/11 02:45:49;;;;;;;11.88;9.20;;;-0.10;1.00;;;;;;6240881;22;20220;-82
2022/03/11 02:48:34;;;;;;;15.35;9.75;;;-0.20;1.00;;;;;;6217486;22;20209;-82
2022/03/11 02:51:11;;;;;;;16.23;10.07;;;-0.20;1.00;;;;;;6227104;22;20193;-83
2022/03/11 02:56:49;;;;;;;11.43;9.18;;;-0.30;1.00;;;;;;6267718;22;20200;-82
2022/03/11 02:59:31;;;;;;;15.68;11.00;;;-0.30;1.00;;;;;;6277624;22;20166;-82
2022/03/11 03:02:29;;;;;;;13.02;9.60;;;-0.30;1.00;;;;;;6245374;22;20554;-83
2022/03/11 03:05:31;;;;;;;17.23;10.43;;;-0.30;1.00;;;;;;6244497;22;20235;-82
2022/03/11 03:08:42;;;;;;;12.90;9.80;;;-0.40;1.00;;;;;;6251390;22;20176;-85
2022/03/11 03:11:28;;;;;;;15.40;11.15;;;-0.40;1.00;;;;;;6240772;22;20248;-81
2022/03/11 03:15:06;;;;;;;;;;;;;;;;;;;;;
2022/03/11 03:17:39;;;;;;;16.40;9.93;;;-0.40;1.00;;;;;;6224323;22;20197;-81
2022/03/11 03:20:15;;;;;;;12.15;9.35;;;-0.50;1.00;;;;;;6221773;22;20963;-83
2022/03/11 03:23:11;;;;;;;14.77;9.90;;;-0.50;1.00;;;;;;6250291;22;20189;-82
2022/03/11 03:25:56;;;;;;;15.45;10.32;;;-0.60;1.00;;;;;;6222777;22;20205;-82
2022/03/11 03:31:59;;;;;;;13.93;10.93;;;-0.70;1.00;;;;;;6220462;22;20197;-82
2022/03/11 03:35:38;;;;;;;;;;;;;;;;;;;;;
2022/03/11 03:38:36;;;;;;;17.40;10.95;;;-0.70;1.00;;;;;;6135831;22;20186;-84
2022/03/11 03:41:06;;;;;;;12.50;9.40;;;-0.70;1.00;;;;;;6223176;22;20199;-83
2022/03/11 03:44:11;;;;;;;14.60;10.00;;;-0.80;1.00;;;;;;6224805;22;20232;-83
2022/03/11 03:50:29;;;;;;;16.77;11.40;;;-0.80;1.00;;;;;;6251278;22;20252;-84
2022/03/11 03:53:25;;;;;;;14.73;10.65;;;-0.80;1.00;;;;;;6251959;22;20696;-83
2022/03/11 03:56:36;;;;;;;15.82;9.90;;;-0.80;1.00;;;;;;6230299;22;20249;-83
2022/03/11 03:59:18;;;;;;;14.23;9.93;;;-0.90;1.00;;;;;;6244220;22;20192;-83
2022/03/11 04:02:22;;;;;;;14.90;10.82;;;-0.90;1.00;;;;;;6266784;22;20193;-82
2022/03/11 04:05:27;;;;;;;15.65;10.25;;;-0.90;1.00;;;;;;6259665;22;20209;-83
2022/03/11 04:11:46;;;;;;;15.82;9.45;;;-1.00;1.00;;;;;;6214924;22;20216;-83
2022/03/11 04:17:41;;;;;;;14.70;10.18;;;-1.00;1.00;;;;;;6220754;22;21092;-82
2022/03/11 04:27:14;;;;;;;15.05;10.65;;;-1.10;1.00;;;;;;6181442;22;20373;-82
2022/03/11 04:30:31;;;;;;;12.52;9.95;;;-1.10;1.00;;;;;;6193961;23;21006;-82
2022/03/11 04:33:47;;;;;;;14.63;9.75;;;-1.20;1.00;;;;;;6196509;23;20345;-83
2022/03/11 04:39:37;;;;;;;16.58;10.90;;;-1.20;1.00;;;;;;6182404;23;20263;-82
2022/03/11 04:52:47;;;;;;;16.67;10.73;;;-1.20;1.00;;;;;;6187502;23;21076;-83
2022/03/11 04:59:42;;;;;;;15.48;11.65;;;-1.30;1.00;;;;;;6095865;23;20279;-82
2022/03/11 05:02:31;;;;;;;19.02;11.13;;;-1.30;1.00;;;;;;6069633;23;20196;-83
2022/03/11 05:05:03;;;;;;;21.77;11.48;;;-1.30;1.00;;;;;;6111361;23;20239;-84
2022/03/11 05:07:31;;;;;;;15.60;11.48;;;-1.30;1.00;;;;;;6211979;23;20275;-82
2022/03/11 05:09:58;;;;;;;15.93;11.05;;;-1.30;1.00;;;;;;6223948;23;20221;-82
2022/03/11 05:12:25;;;;;;;17.17;11.23;;;-1.30;1.00;;;;;;6221617;23;20666;-84
2022/03/11 05:14:53;;;;;;;16.80;10.32;;;-1.30;1.00;;;;;;6195753;23;20201;-84
2022/03/11 05:17:47;;;;;;;15.90;11.10;;;-1.40;1.00;;;;;;6235870;22;20198;-84
2022/03/11 05:20:15;;;;;;;14.18;9.90;;;-1.40;1.00;;;;;;6228163;23;20185;-82
2022/03/11 05:22:42;;;;;;;16.60;10.80;;;-1.40;1.00;;;;;;6195249;23;20194;-82
2022/03/11 05:25:13;;;;;;;28.45;13.55;;;-1.40;1.00;;;;;;6219162;23;20308;-81
2022/03/11 05:27:46;;;;;;;15.20;10.82;;;-1.40;1.00;;;;;;6230233;22;20479;-83
2022/03/11 05:30:19;;;;;;;19.92;11.65;;;-1.40;1.00;;;;;;6228376;22;20197;-85
2022/03/11 05:32:48;;;;;;;18.90;11.27;;;-1.40;1.00;;;;;;6258547;22;20181;-82
2022/03/11 05:35:16;;;;;;;19.20;11.68;;;-1.40;1.00;;;;;;6259400;22;20196;-84
2022/03/11 05:37:43;;;;;;;22.00;11.57;;;-1.40;1.00;;;;;;6259730;22;21534;-85
2022/03/11 05:40:11;;;;;;;17.60;11.40;;;-1.40;1.00;;;;;;6261279;22;20201;-83
2022/03/11 05:42:38;;;;;;;17.70;10.65;;;-1.40;1.00;;;;;;6259639;22;20193;-84
2022/03/11 05:45:07;;;;;;;15.02;10.50;;;-1.40;1.00;;;;;;6262578;22;20232;-85
2022/03/11 05:47:34;;;;;;;20.15;12.52;;;-1.40;1.00;;;;;;6232233;22;20201;-83
2022/03/11 05:50:05;;;;;;;15.18;10.63;;;-1.40;1.00;;;;;;6254226;22;20279;-84
2022/03/11 05:52:36;;;;;;;17.85;11.90;;;-1.40;1.00;;;;;;6257956;22;20197;-83
2022/03/11 05:55:04;;;;;;;17.40;11.50;;;-1.40;1.00;;;;;;6232380;22;20248;-85
2022/03/11 05:57:31;;;;;;;22.58;13.32;;;-1.40;1.00;;;;;;6263852;22;20193;-86
2022/03/11 05:59:58;;;;;;;19.77;12.75;;;-1.40;1.00;;;;;;6255818;22;21057;-84
2022/03/11 06:02:25;;;;;;;22.95;12.30;;;-1.40;1.00;;;;;;6236765;22;20201;-86
2022/03/11 06:04:53;;;;;;;20.33;11.23;;;-1.30;1.00;;;;;;6258106;22;20217;-85
2022/03/11 06:07:21;;;;;;;16.70;11.77;;;-1.30;1.00;;;;;;6264671;22;20193;-85
2022/03/11 06:09:49;;;;;;;16.85;11.15;;;-1.20;1.00;;;;;;6237361;22;20462;-85
2022/03/11 06:12:17;;;;;;;16.95;11.23;;;-1.20;1.00;;;;;;6256015;22;20195;-84
2022/03/11 06:14:44;;;;;;;15.10;10.25;;;-1.20;1.00;;;;;;6257258;22;20193;-85
2022/03/11 06:17:13;;;;;;;19.17;12.57;;;-1.20;1.00;;;;;;6256612;22;20189;-85
2022/03/11 06:19:43;;;;;;;16.05;10.15;;;-1.10;1.00;;;;;;6261026;22;20304;-85
2022/03/11 06:22:10;;;;;;;15.02;10.27;;;-1.10;1.00;;;;;;6240626;22;20174;-85
2022/03/11 06:24:39;;;;;;;15.82;11.13;;;-1.10;1.00;;;;;;6244887;22;20386;-81
2022/03/11 06:27:12;;;;;;;13.45;11.50;;;-1.00;1.00;;;;;;6232257;22;20201;-80
2022/03/11 06:29:48;;;;;;;20.48;12.40;;;-0.90;1.00;;;;;;6257445;22;20241;-81
2022/03/11 06:32:25;;;;;;;22.45;11.70;;;-0.90;1.00;;;;;;6256704;22;21008;-83
2022/03/11 06:34:59;;;;;;;15.93;10.77;;;-0.90;1.00;;;;;;6255670;22;20320;-80
2022/03/11 06:37:33;;;;;;;17.13;11.55;;;-0.80;1.00;;;;;;6229073;22;20197;-81
2022/03/11 06:40:11;;;;;;;15.35;11.55;;;-0.70;1.00;;;;;;6231533;22;20201;-82
2022/03/11 06:42:43;;;;;;;21.58;11.32;;;-0.60;1.00;;;;;;6255847;22;20191;-80
2022/03/11 06:45:16;;;;;;;14.95;10.85;;;-0.50;1.00;;;;;;6227603;22;21437;-80
2022/03/11 06:47:44;;;;;;;17.33;12.48;;;-0.50;1.00;;;;;;6229744;22;20228;-78
2022/03/11 06:50:16;;;;;;;20.02;13.63;;;-0.40;1.00;;;;;;6227862;22;20208;-79
2022/03/11 06:52:53;;;;;;;17.48;10.35;;;-0.40;1.00;;;;;;6230372;22;20201;-80
2022/03/11 06:55:24;;;;;;;16.77;11.45;;;-0.40;1.00;;;;;;6253081;22;20244;-80
2022/03/11 06:57:54;;;;;;;16.05;11.57;;;-0.40;1.00;;;;;;6225102;22;20181;-79
2022/03/11 07:00:27;;;;;;;21.20;12.35;;;-0.30;1.00;;;;;;6250169;22;20651;-79
2022/03/11 07:02:58;;;;;;;16.75;11.60;;;-0.20;1.00;;;;;;6254393;22;20395;-81
2022/03/11 07:05:33;;;;;;;20.02;11.48;;;-0.20;1.00;;;;;;6232222;22;20213;-80
2022/03/11 07:08:01;;;;;;;15.40;11.85;;;0.00;1.00;;;;;;6259512;22;20177;-79
2022/03/11 07:10:33;;;;;;;16.95;11.73;;;0.00;1.00;;;;;;6230856;22;20193;-81
2022/03/11 07:13:05;;;;;;;15.45;11.98;;;0.10;1.00;;;;;;6233374;22;20181;-81
2022/03/11 07:15:35;;;;;;;18.55;11.73;;;0.10;1.00;;;;;;6265888;22;20185;-79
2022/03/11 07:18:02;;;;;;;16.50;11.52;;;0.30;1.00;;;;;;6259528;22;20200;-80
2022/03/11 07:20:29;;;;;;;14.50;11.20;;;0.40;1.00;;;;;;6229524;22;20197;-78
2022/03/11 07:23:06;;;;;;;16.38;11.40;;;0.50;1.00;;;;;;6231724;22;20240;-80
2022/03/11 07:25:36;;;;;;;13.80;11.10;;;0.60;1.00;;;;;;6259082;22;20452;-79
2022/03/11 07:28:03;;;;;;;17.50;11.00;;;0.70;1.00;;;;;;6259838;22;20193;-80
2022/03/11 07:30:38;;;;;;;15.23;11.32;;;0.60;1.00;;;;;;6234336;22;21002;-80
2022/03/11 07:33:07;;;;;;;18.42;11.50;;;0.70;1.00;;;;;;6274319;22;20189;-80
2022/03/11 07:35:40;;;;;;;17.10;11.07;;;0.80;1.00;;;;;;6276005;22;20169;-80
2022/03/11 07:38:13;;;;;;;15.88;10.90;;;0.80;1.00;;;;;;6250914;22;20211;-80
2022/03/11 07:40:41;;;;;;;18.55;12.27;;;1.00;1.00;;;;;;6275120;22;20228;-81
2022/03/11 07:43:13;;;;;;;17.38;11.77;;;1.10;1.00;;;;;;6275313;22;20189;-80
2022/03/11 07:45:41;;;;;;;16.52;12.10;;;1.30;1.00;;;;;;6275851;22;20184;-80
2022/03/11 07:48:11;;;;;;;14.52;11.60;;;1.50;1.00;;;;;;6242065;22;20195;-80
2022/03/11 07:50:39;;;;;;;16.77;10.93;;;1.50;1.00;;;;;;6232899;22;20185;-79
2022/03/11 07:53:08;;;;;;;14.80;11.00;;;1.60;1.00;;;;;;6260642;22;20213;-80
2022/03/11 07:55:36;;;;;;;17.63;12.10;;;1.60;1.00;;;;;;6229589;22;20252;-79
2022/03/11 07:58:07;;;;;;;19.00;11.40;;;1.60;1.00;;;;;;6255884;22;20255;-79
2022/03/11 08:00:41;;;;;;;13.57;10.45;;;1.70;1.00;;;;;;6226520;22;20217;-80
2022/03/11 08:03:14;;;;;;;13.68;10.05;;;1.80;1.00;;;;;;6227247;22;20211;-80
2022/03/11 08:05:44;;;;;;;17.85;11.25;;;1.80;1.00;;;;;;6228256;22;20204;-81
2022/03/11 08:08:14;;;;;;;18.98;11.48;;;1.90;1.00;;;;;;6254908;22;20196;-79
2022/03/11 08:10:41;;;;;;;14.82;11.02;;;2.20;1.00;;;;;;6227554;22;20181;-80
2022/03/11 08:13:09;;;;;;;14.95;10.73;;;2.40;1.00;;;;;;6264533;22;20188;-81
2022/03/11 08:15:37;;;;;;;14.98;11.00;;;2.50;1.00;;;;;;6263039;22;20172;-79
2022/03/11 08:18:04;;;;;;;17.60;12.75;;;2.50;1.00;;;;;;6266002;22;20797;-80
2022/03/11 08:20:33;;;;;;;15.23;11.02;;;2.50;1.00;;;;;;6268634;22;20188;-80
2022/03/11 08:23:03;;;;;;;15.95;11.32;;;2.60;1.00;;;;;;6268289;22;20264;-80
2022/03/11 08:25:31;;;;;;;15.90;11.30;;;2.50;1.00;;;;;;6263372;22;20205;-79
2022/03/11 08:27:59;;;;;;;20.38;12.50;;;2.70;1.00;;;;;;6240191;22;20197;-80
2022/03/11 08:30:29;;;;;;;16.30;11.55;;;2.80;1.00;;;;;;6243398;22;20189;-80
2022/03/11 08:32:59;;;;;;;16.45;11.13;;;2.90;1.00;;;;;;6239161;22;20204;-80
2022/03/11 08:35:28;;;;;;;15.10;12.20;;;3.00;1.00;;;;;;6267189;22;20264;-79
2022/03/11 08:37:55;;;;;;;25.35;11.68;;;3.10;1.00;;;;;;6263297;22;20212;-81
2022/03/11 08:40:24;;;;;;;13.15;10.52;;;3.20;1.00;;;;;;6266057;22;20194;-79
2022/03/11 08:42:54;;;;;;;12.55;9.95;;;3.30;1.00;;;;;;6261556;22;20261;-81
2022/03/11 08:45:24;;;;;;;14.75;11.40;;;3.50;1.00;;;;;;6228914;22;20211;-79
2022/03/11 08:47:54;;;;;;;15.50;11.77;;;3.50;1.00;;;;;;6232874;22;20235;-79
2022/03/11 08:50:25;;;;;;;16.92;11.02;;;3.60;1.00;;;;;;6270044;22;20189;-79
2022/03/11 08:52:53;;;;;;;15.98;11.43;;;3.70;1.00;;;;;;6237725;22;20193;-79
2022/03/11 08:55:20;;;;;;;13.60;10.77;;;3.90;1.00;;;;;;6229878;22;20193;-82
2022/03/11 08:57:53;;;;;;;16.17;10.82;;;4.20;1.00;;;;;;6253244;22;20193;-80
2022/03/11 09:00:22;;;;;;;15.93;10.82;;;4.70;1.00;;;;;;6255958;22;20246;-80
2022/03/11 09:02:54;;;;;;;13.13;10.75;;;5.30;1.00;;;;;;6254535;22;20193;-80
2022/03/11 09:05:25;;;;;;;14.48;10.35;;;5.80;1.00;;;;;;6228616;22;21215;-80
2022/03/11 09:07:52;;;;;;;15.25;11.40;;;6.30;1.00;;;;;;6229433;22;20252;-79
2022/03/11 09:10:23;;;;;;;14.15;10.13;;;7.10;1.00;;;;;;6265638;22;20200;-80
2022/03/11 09:12:56;;;;;;;14.18;11.43;;;8.10;1.00;;;;;;6259499;22;20208;-80
2022/03/11 09:15:23;;;;;;;15.32;11.02;;;9.10;1.00;;;;;;6250607;22;20233;-80
2022/03/11 09:17:50;;;;;;;14.40;11.10;;;9.50;1.00;;;;;;6253131;22;20276;-81
2022/03/11 09:20:18;;;;;;;13.63;10.97;;;10.30;1.00;;;;;;6249906;22;20212;-82
2022/03/11 09:22:47;;;;;;;18.03;11.27;;;10.90;1.00;;;;;;6251808;22;20443;-80
2022/03/11 09:25:16;;;;;;;16.33;10.97;;;11.40;1.00;;;;;;6257896;22;20424;-80
2022/03/11 09:27:45;;;;;;;16.97;12.50;;;11.80;1.00;;;;;;6271936;22;20384;-79
2022/03/11 09:30:14;;;;;;;14.20;12.30;;;12.30;1.00;;;;;;6273104;22;20376;-79
2022/03/11 09:32:42;;;;;;;13.43;11.63;;;12.20;1.00;;;;;;6272259;22;20376;-80
2022/03/11 09:35:10;;;;;;;49.53;15.67;;;12.50;1.00;;;;;;6262891;22;20427;-81
2022/03/11 09:37:42;;;;;;;13.90;10.47;;;13.40;1.00;;;;;;6253786;22;20401;-79
2022/03/11 09:40:10;;;;;;;35.40;13.13;;;13.20;1.00;;;;;;6249699;22;20367;-82
2022/03/11 09:42:37;;;;;;;30.97;13.07;;;13.40;1.00;;;;;;6251287;22;20384;-80
2022/03/11 09:45:06;;;;;;;13.20;10.53;;;13.70;1.00;;;;;;6246494;22;20412;-79
2022/03/11 09:47:34;;;;;;;15.63;10.70;;;13.50;1.00;;;;;;6254903;22;20834;-81
2022/03/11 09:50:04;;;;;;;14.67;10.67;;;12.70;1.00;;;;;;6254197;22;20418;-80
2022/03/11 09:52:33;;;;;;;21.40;12.60;;;12.50;1.00;;;;;;6225253;22;20491;-82
2022/03/11 09:55:01;;;;;;;12.40;10.80;;;12.60;1.00;;;;;;6221304;22;20931;-80
2022/03/11 09:57:28;;;;;;;12.37;10.50;;;12.90;1.00;;;;;;6246177;22;20400;-81
2022/03/11 09:59:55;;;;;;;12.67;11.37;;;13.80;1.00;;;;;;6248343;22;20416;-79
2022/03/11 10:02:24;;;;;;;10.73;9.63;;;14.00;1.00;;;;;;6220319;22;20525;-79
2022/03/11 10:04:53;;;;;;;15.23;11.60;;;14.30;1.00;;;;;;6219416;22;20419;-80
2022/03/11 10:07:22;;;;;;;12.90;11.03;;;14.50;1.00;;;;;;6249800;22;20377;-80
2022/03/11 10:09:49;;;;;;;14.50;11.07;;;14.80;1.00;;;;;;6250519;22;20400;-80
2022/03/11 10:12:23;;;;;;;12.50;10.43;;;15.20;1.00;;;;;;6249600;22;20930;-80
2022/03/11 10:14:56;;;;;;;13.00;10.50;;;15.50;1.00;;;;;;6218796;22;20558;-80
2022/03/11 10:17:25;;;;;;;16.43;12.70;;;16.30;1.00;;;;;;6222651;22;20420;-82
2022/03/11 10:20:03;;;;;;;13.00;11.63;;;16.90;1.00;;;;;;6250558;22;20465;-80
2022/03/11 10:22:31;;;;;;;15.20;11.70;;;16.80;1.00;;;;;;6222687;22;20949;-79
2022/03/11 10:25:01;;;;;;;11.80;10.13;;;15.40;1.00;;;;;;6256407;22;21712;-78
2022/03/11 10:27:33;;;;;;;12.87;10.67;;;15.10;1.00;;;;;;6221137;22;20404;-80
2022/03/11 10:30:09;;;;;;;12.83;9.93;;;14.80;1.00;;;;;;6253038;22;20373;-79
2022/03/11 10:32:48;;;;;;;12.20;9.83;;;14.90;1.00;;;;;;6224657;22;20404;-81
2022/03/11 10:35:18;;;;;;;14.10;10.87;;;15.30;1.00;;;;;;6254541;22;20393;-83
2022/03/11 10:37:56;;;;;;;13.50;10.10;;;15.60;1.00;;;;;;6250739;22;20375;-82
2022/03/11 10:40:24;;;;;;;11.77;9.70;;;16.10;1.00;;;;;;6225019;22;20387;-82
2022/03/11 10:43:13;;;;;;;13.17;10.33;;;16.80;1.00;;;;;;6254401;22;20478;-82
2022/03/11 10:45:52;;;;;;;12.13;9.33;;;17.00;1.00;;;;;;6229683;22;20423;-83
2022/03/11 10:48:20;;;;;;;13.50;10.80;;;16.70;1.00;;;;;;6225447;22;20384;-81
2022/03/11 10:50:47;;;;;;;14.13;10.60;;;16.40;1.00;;;;;;6253863;22;20371;-82
2022/03/11 10:53:14;;;;;;;13.67;10.57;;;16.60;1.00;;;;;;6253575;22;20385;-82
2022/03/11 10:55:43;;;;;;;12.13;10.80;;;17.20;1.00;;;;;;6225927;22;21159;-81
2022/03/11 10:58:16;;;;;;;11.73;9.20;;;16.10;1.00;;;;;;6252423;22;20408;-82
2022/03/11 11:00:44;;;;;;;11.70;9.77;;;15.90;1.00;;;;;;6253489;22;20349;-82
2022/03/11 11:03:13;;;;;;;13.30;10.07;;;15.70;1.00;;;;;;6253469;22;20424;-83
2022/03/11 11:05:42;;;;;;;11.03;9.00;;;15.80;1.00;;;;;;6227416;22;20424;-81
2022/03/11 11:08:10;;;;;;;11.57;9.50;;;16.30;1.00;;;;;;6224552;22;20408;-82
2022/03/11 11:10:41;;;;;;;13.00;9.87;;;17.30;1.00;;;;;;6253743;22;20402;-82
2022/03/11 11:13:09;;;;;;;14.47;9.67;;;17.30;1.00;;;;;;6227506;22;20385;-81
2022/03/11 11:15:42;;;;;;;12.30;9.83;;;17.00;1.00;;;;;;6226858;22;20400;-81
2022/03/11 11:18:14;;;;;;;12.10;9.50;;;16.80;1.00;;;;;;6266065;22;20392;-81
2022/03/11 11:20:46;;;;;;;10.83;8.47;;;17.30;1.00;;;;;;6261657;22;20435;-81
2022/03/11 11:23:15;;;;;;;11.23;9.30;;;18.00;1.00;;;;;;6252983;22;20373;-81
2022/03/11 11:25:43;;;;;;;10.40;9.30;;;18.20;1.00;;;;;;6226934;22;20426;-82
2022/03/11 11:28:11;;;;;;;14.63;11.30;;;18.50;1.00;;;;;;6248483;22;20453;-82
2022/03/11 11:30:44;;;;;;;11.57;9.67;;;18.30;1.00;;;;;;6250940;22;20591;-81
2022/03/11 11:33:12;;;;;;;13.63;10.00;;;18.50;1.00;;;;;;6250607;22;20419;-82
2022/03/11 11:35:41;;;;;;;11.00;9.20;;;19.10;1.00;;;;;;6224945;22;20381;-82
2022/03/11 11:38:33;;;;;;;12.53;10.53;;;19.80;1.00;;;;;;6249190;22;20484;-83
2022/03/11 11:41:01;;;;;;;14.17;9.77;;;19.10;1.00;;;;;;6228930;22;20416;-84
2022/03/11 11:43:30;;;;;;;16.73;10.40;;;19.30;1.00;;;;;;6251640;22;20397;-83
2022/03/11 11:46:06;;;;;;;10.60;9.43;;;19.80;1.00;;;;;;6245460;22;20412;-82
2022/03/11 11:48:59;;;;;;;15.10;13.23;;;20.20;1.00;;;;;;6219194;22;20392;-82
2022/03/11 11:51:56;;;;;;;13.87;9.53;;;19.50;1.00;;;;;;6222621;22;20417;-84
2022/03/11 11:54:44;;;;;;;10.50;8.70;;;19.20;1.00;;;;;;6218469;22;21242;-83
2022/03/11 11:57:25;;;;;;;15.17;9.70;;;18.80;1.00;;;;;;6219702;22;20416;-81
2022/03/11 11:59:52;;;;;;;10.53;8.87;;;18.00;1.00;;;;;;6234266;22;20400;-81
2022/03/11 12:02:32;;;;;;;8.77;7.87;;;18.80;1.00;;;;;;6248719;22;20371;-81
2022/03/11 12:04:59;;;;;;;12.13;8.03;;;20.10;1.00;;;;;;6250955;22;20458;-82
2022/03/11 12:07:49;;;;;;;9.57;8.57;;;20.50;1.00;;;;;;6253704;22;20361;-82
2022/03/11 12:10:24;;;;;;;9.30;8.40;;;19.90;1.00;;;;;;6223714;22;20548;-83
2022/03/11 12:13:01;;;;;;;12.20;8.03;;;18.80;1.00;;;;;;6224826;22;20412;-81
2022/03/11 12:15:43;;;;;;;11.80;8.33;;;19.80;1.00;;;;;;6227055;22;20423;-82
2022/03/11 12:18:40;;;;;;;12.83;9.17;;;20.30;1.00;;;;;;6248332;22;20496;-81
2022/03/11 12:21:08;;;;;;;13.07;8.80;;;20.70;1.00;;;;;;6255879;22;20968;-81
2022/03/11 12:23:36;;;;;;;11.60;8.30;;;19.90;1.00;;;;;;6253151;22;20447;-81
2022/03/11 12:26:09;;;;;;;8.97;7.57;;;20.40;1.00;;;;;;6253901;22;20428;-81
2022/03/11 12:28:39;;;;;;;9.33;7.73;;;20.60;1.00;;;;;;6226490;22;21112;-81
2022/03/11 12:31:09;;;;;;;9.37;8.47;;;20.90;1.00;;;;;;6227116;22;21373;-81
2022/03/11 12:33:38;;;;;;;9.20;7.23;;;21.20;1.00;;;;;;6254394;22;20401;-83
2022/03/11 12:36:09;;;;;;;8.53;7.73;;;21.00;1.00;;;;;;6226109;22;20415;-85
2022/03/11 12:38:38;;;;;;;8.43;7.53;;;21.20;1.00;;;;;;6226296;22;20385;-83
2022/03/11 12:41:10;;;;;;;8.47;7.47;;;21.30;1.00;;;;;;6253566;22;20504;-82
2022/03/11 12:43:38;;;;;;;8.20;7.30;;;20.60;1.00;;;;;;6226141;22;21233;-85
2022/03/11 12:46:06;;;;;;;10.00;7.10;;;19.90;1.00;;;;;;6224629;22;21195;-84
2022/03/11 12:48:42;;;;;;;9.87;6.97;;;19.20;1.00;;;;;;6255458;22;20438;-83
2022/03/11 12:51:16;;;;;;;8.17;6.47;;;19.00;1.00;;;;;;6255894;22;20416;-83
2022/03/11 12:53:43;;;;;;;7.30;6.43;;;18.80;1.00;;;;;;6227149;22;20566;-80
2022/03/11 12:56:09;;;;;;;8.77;6.20;;;19.20;1.00;;;;;;6254936;22;20459;-80
2022/03/11 12:58:38;;;;;;;8.30;7.30;;;18.90;1.00;;;;;;6258097;22;20390;-79
2022/03/11 13:01:09;;;;;;;9.60;6.80;;;18.50;1.00;;;;;;6261061;22;20368;-80
2022/03/11 13:03:37;;;;;;;17.00;7.13;;;18.60;1.00;;;;;;6227159;22;20528;-79
2022/03/11 13:06:07;;;;;;;7.27;6.57;;;18.20;1.00;;;;;;6229178;22;20440;-81
2022/03/11 13:08:35;;;;;;;8.80;7.00;;;17.60;1.00;;;;;;6224761;22;20455;-82
2022/03/11 13:11:04;;;;;;;11.63;6.80;;;18.30;1.00;;;;;;6253418;22;20447;-80
2022/03/11 13:13:32;;;;;;;9.90;7.70;;;18.20;1.00;;;;;;6251210;22;20359;-78
2022/03/11 13:16:00;;;;;;;8.70;5.90;;;17.20;1.00;;;;;;6253028;22;20409;-80
2022/03/11 13:18:29;;;;;;;6.67;5.83;;;16.00;1.00;;;;;;6226644;22;20431;-79
2022/03/11 13:20:57;;;;;;;7.60;5.50;;;15.70;1.00;;;;;;6254727;22;20406;-78
2022/03/11 13:23:28;;;;;;;8.23;5.73;;;15.70;1.00;;;;;;6262456;22;20480;-79
2022/03/11 13:25:57;;;;;;;7.37;6.13;;;15.80;1.00;;;;;;6247647;22;20402;-79
2022/03/11 13:28:26;;;;;;;9.93;6.00;;;16.20;1.00;;;;;;6276550;22;20361;-79
2022/03/11 13:30:55;;;;;;;8.73;6.17;;;16.20;1.00;;;;;;6248526;22;20402;-80
2022/03/11 13:33:24;;;;;;;7.43;5.57;;;16.30;1.00;;;;;;6271746;22;20396;-80
2022/03/11 13:36:03;;;;;;;9.17;5.80;;;15.80;1.00;;;;;;6278856;22;20629;-81
2022/03/11 13:38:39;;;;;;;6.80;5.90;;;15.80;1.00;;;;;;6279206;22;20420;-79
2022/03/11 13:41:10;;;;;;;8.27;5.80;;;15.50;1.00;;;;;;6279238;22;20388;-81
2022/03/11 13:43:38;;;;;;;58.60;18.83;;;13.90;1.00;;;;;;6281062;22;20337;-80
2022/03/11 13:46:06;;;;;;;7.77;6.03;;;12.80;1.00;;;;;;6252386;22;20403;-83
2022/03/11 13:49:23;;;;;;;10.07;6.37;;;11.90;1.00;;;;;;6253486;22;20357;-80
2022/03/11 13:51:52;;;;;;;7.80;6.20;;;11.40;1.00;;;;;;6278384;22;20471;-79
2022/03/11 13:54:34;;;;;;;8.50;5.03;;;10.90;1.00;;;;;;6278033;22;20440;-81
2022/03/11 13:57:17;;;;;;;10.70;5.50;;;10.50;1.00;;;;;;6252994;22;20388;-80
2022/03/11 13:59:46;;;;;;;8.23;5.97;;;10.10;1.00;;;;;;6252213;22;20341;-81
2022/03/11 14:02:16;;;;;;;7.10;6.10;;;9.90;1.00;;;;;;6280245;22;20353;-81
2022/03/11 14:04:43;;;;;;;8.47;5.57;;;9.80;1.00;;;;;;6279258;22;20336;-82
2022/03/11 14:07:14;;;;;;;6.87;5.30;;;9.80;1.00;;;;;;6252543;22;20439;-80
2022/03/11 14:09:42;;;;;;;7.50;6.00;;;9.80;1.00;;;;;;6278382;22;20389;-80
2022/03/11 14:12:10;;;;;;;14.13;9.23;;;9.90;1.00;;;;;;6250563;22;20400;-80
2022/03/11 14:14:42;;;;;;;9.10;5.13;;;9.80;1.00;;;;;;6279129;22;20356;-81
2022/03/11 14:17:10;;;;;;;8.30;6.50;;;9.80;1.00;;;;;;6277373;22;20397;-81
2022/03/11 14:19:37;;;;;;;8.53;5.47;;;9.70;1.00;;;;;;6278072;22;20352;-80
2022/03/11 14:22:10;;;;;;;9.33;5.30;;;9.70;1.00;;;;;;6248447;22;20424;-81
2022/03/11 14:24:37;;;;;;;8.73;6.00;;;9.70;1.00;;;;;;6277788;22;20412;-80
2022/03/11 14:27:15;;;;;;;10.38;5.88;;;9.60;1.00;;;;;;6278216;22;20423;-80
2022/03/11 14:29:42;;;;;;;7.40;6.10;;;9.60;1.00;;;;;;6249619;22;20261;-79
2022/03/11 14:32:08;;;;;;;9.13;6.43;;;9.60;1.00;;;;;;6276877;22;20356;-80
2022/03/11 14:34:35;;;;;;;8.23;6.07;;;9.60;1.00;;;;;;6275999;22;20353;-80
2022/03/11 14:37:03;;;;;;;7.97;6.40;;;9.60;1.00;;;;;;6276690;22;20381;-79
2022/03/11 14:39:30;;;;;;;7.85;5.47;;;9.50;1.00;;;;;;6245302;22;20371;-81
2022/03/11 14:41:57;;;;;;;7.67;5.97;;;9.50;1.00;;;;;;6266429;22;20189;-79
2022/03/11 14:44:26;;;;;;;7.85;5.95;;;9.50;1.00;;;;;;6251810;22;20369;-79
2022/03/11 14:46:56;;;;;;;9.57;6.32;;;9.50;1.00;;;;;;6248553;22;21325;-81
2022/03/11 14:49:23;;;;;;;8.40;6.13;;;9.40;1.00;;;;;;6241368;22;20193;-80
2022/03/11 14:51:50;;;;;;;7.67;6.50;;;9.30;1.00;;;;;;6224577;22;20186;-79
2022/03/11 14:54:17;;;;;;;8.00;6.27;;;9.30;1.00;;;;;;6240643;22;20415;-79
2022/03/11 14:56:44;;;;;;;10.53;7.37;;;9.30;1.00;;;;;;6238246;22;20380;-79
2022/03/11 14:59:11;;;;;;;7.63;5.53;;;9.20;1.00;;;;;;6219413;22;20476;-79
2022/03/11 15:01:39;;;;;;;10.43;5.80;;;9.20;1.00;;;;;;6216442;22;20424;-81
2022/03/11 15:04:06;;;;;;;9.73;6.20;;;9.20;1.00;;;;;;6244632;22;20369;-81
2022/03/11 15:06:34;;;;;;;9.48;6.47;;;9.20;1.00;;;;;;6244222;22;20603;-80
2022/03/11 15:09:01;;;;;;;8.85;6.03;;;9.10;1.00;;;;;;6253651;22;20223;-80
2022/03/11 15:11:28;;;;;;;8.20;6.40;;;9.10;1.00;;;;;;6257967;22;20197;-82
2022/03/11 15:13:56;;;;;;;7.50;5.80;;;9.10;1.00;;;;;;6228861;22;20439;-81
2022/03/11 15:16:23;;;;;;;10.53;7.23;;;9.00;1.00;;;;;;6240154;22;20408;-81
2022/03/11 15:18:51;;;;;;;10.60;6.30;;;9.00;1.00;;;;;;6260979;22;20365;-80
2022/03/11 15:21:18;;;;;;;8.20;6.43;;;8.90;1.00;;;;;;6238273;22;20853;-80
2022/03/11 15:23:45;;;;;;;7.53;5.63;;;8.90;1.00;;;;;;6265169;22;20183;-80
2022/03/11 15:26:12;;;;;;;8.50;6.50;;;8.90;1.00;;;;;;6266091;22;20499;-80
2022/03/11 15:28:38;;;;;;;9.43;6.82;;;8.80;1.00;;;;;;6266590;22;20486;-80
2022/03/11 15:31:05;;;;;;;10.23;6.00;;;8.80;1.00;;;;;;6260193;22;20193;-80
2022/03/11 15:33:32;;;;;;;12.48;6.80;;;8.80;1.00;;;;;;6262413;22;20377;-81